Time;durP1;ratioP1;P1;durP2;ratioP2;P2;SDS_P1;SDS_P2;PMS_P1;PMS_P2;Temp;Humidity;BMP_temperature;BMP_pressure;BME280_temperature;BME280_humidity;BME280_pressure;Samples;Min_cycle;Max_cycle;Signal;HPM_P1;HPM_P2
2023/12/07 00:02:17;;;;;;;10.10;7.57;;;;;;;1.46;100.00;151742.00;5030659;28;20478;-81
2023/12/07 00:04:43;;;;;;;9.63;8.63;;;;;;;1.44;100.00;151738.19;5025391;28;20484;-81
2023/12/07 00:07:10;;;;;;;10.73;7.20;;;;;;;1.45;100.00;151740.78;5034219;28;20496;-81
2023/12/07 00:09:37;;;;;;;12.33;7.27;;;;;;;1.46;100.00;151743.31;5026518;28;20450;-81
2023/12/07 00:12:03;;;;;;;11.63;7.13;;;;;;;1.45;100.00;151739.47;5048837;28;20469;-81
2023/12/07 00:14:31;;;;;;;11.43;7.57;;;;;;;1.44;100.00;151736.88;5046874;28;20477;-80
2023/12/07 00:16:58;;;;;;;10.47;8.30;;;;;;;1.45;100.00;151739.47;5050684;28;20829;-81
2023/12/07 00:19:24;;;;;;;11.80;7.63;;;;;;;1.44;100.00;151738.19;5041372;28;20476;-81
2023/12/07 00:21:51;;;;;;;9.57;7.00;;;;;;;1.45;100.00;151739.47;5044945;28;20949;-81
2023/12/07 00:24:17;;;;;;;14.20;8.37;;;;;;;1.45;100.00;151740.78;5032874;28;20473;-81
2023/12/07 00:26:44;;;;;;;8.80;7.10;;;;;;;1.46;100.00;151742.00;5047513;28;20450;-81
2023/12/07 00:29:10;;;;;;;8.53;7.10;;;;;;;1.46;100.00;151742.00;5047041;28;20458;-81
2023/12/07 00:31:38;;;;;;;8.17;6.70;;;;;;;1.44;100.00;151736.88;5048832;28;20458;-81
2023/12/07 00:34:05;;;;;;;10.80;7.37;;;;;;;1.45;100.00;151740.78;5051145;28;20485;-81
2023/12/07 00:36:32;;;;;;;9.50;7.30;;;;;;;1.44;100.00;151738.19;5049132;28;20805;-82
2023/12/07 00:38:58;;;;;;;9.67;6.73;;;;;;;1.45;100.00;151739.47;5048299;28;20458;-82
2023/12/07 00:41:25;;;;;;;11.77;6.97;;;;;;;1.45;100.00;151740.78;5049396;28;20842;-82
2023/12/07 00:43:51;;;;;;;10.90;7.27;;;;;;;1.46;100.00;151742.00;5031492;28;20466;-82
2023/12/07 00:46:18;;;;;;;8.83;6.70;;;;;;;1.45;100.00;151740.78;5046653;28;20450;-82
2023/12/07 00:48:46;;;;;;;9.20;6.50;;;;;;;1.46;100.00;151742.00;5030609;28;20529;-82
2023/12/07 00:51:12;;;;;;;8.70;6.13;;;;;;;1.49;100.00;151749.72;5049624;28;20454;-82
2023/12/07 00:53:39;;;;;;;8.90;6.40;;;;;;;1.51;100.00;151756.16;5047717;28;20450;-82
2023/12/07 00:56:06;;;;;;;7.83;6.03;;;;;;;1.50;100.00;151753.63;5028655;28;20471;-82
2023/12/07 00:58:33;;;;;;;7.87;6.40;;;;;;;1.51;100.00;151756.16;5027281;28;20936;-83
2023/12/07 01:01:00;;;;;;;7.33;5.90;;;;;;;1.52;100.00;151757.44;5026465;28;20470;-82
2023/12/07 01:03:26;;;;;;;7.30;5.60;;;;;;;1.52;100.00;151758.75;5049803;28;20967;-82
2023/12/07 01:05:54;;;;;;;8.07;6.00;;;;;;;1.54;100.00;151762.56;5016042;28;20505;-83
2023/12/07 01:08:21;;;;;;;7.37;5.47;;;;;;;1.54;100.00;151762.56;5049514;28;20447;-82
2023/12/07 01:10:47;;;;;;;8.90;6.20;;;;;;;1.55;100.00;151765.16;5027842;28;20464;-82
2023/12/07 01:13:14;;;;;;;8.33;5.73;;;;;;;1.56;100.00;151767.75;5009753;28;20489;-82
2023/12/07 01:15:40;;;;;;;7.50;5.17;;;;;;;1.55;100.00;151765.16;5036689;28;20459;-82
2023/12/07 01:18:07;;;;;;;10.50;6.07;;;;;;;1.56;100.00;151767.75;5048922;28;20560;-82
2023/12/07 01:20:33;;;;;;;7.50;5.17;;;;;;;1.56;100.00;151767.75;5030437;28;20451;-82
2023/12/07 01:23:01;;;;;;;8.10;5.70;;;;;;;1.58;100.00;151772.88;5029058;28;20559;-82
2023/12/07 01:25:28;;;;;;;6.87;5.07;;;;;;;1.59;100.00;151776.72;5032495;28;20463;-82
2023/12/07 01:27:54;;;;;;;7.67;5.80;;;;;;;1.60;100.00;151779.31;5033442;28;20526;-82
2023/12/07 01:30:21;;;;;;;7.37;5.60;;;;;;;1.58;100.00;151774.19;5049233;28;20480;-83
2023/12/07 01:32:48;;;;;;;6.47;5.00;;;;;;;1.56;100.00;151769.00;5045650;28;20451;-82
2023/12/07 01:35:15;;;;;;;7.50;5.17;;;;;;;1.55;100.00;151766.47;5028049;28;20566;-76
2023/12/07 01:37:41;;;;;;;8.70;5.97;;;;;;;1.54;100.00;151762.56;5047452;28;20451;-75
2023/12/07 01:40:10;;;;;;;7.27;5.67;;;;;;;1.53;100.00;151760.03;5032120;28;20455;-76
2023/12/07 01:42:37;;;;;;;7.80;5.50;;;;;;;1.53;100.00;151761.34;5048260;28;20450;-76
2023/12/07 01:45:05;;;;;;;7.93;4.77;;;;;;;1.54;100.00;151763.88;5031155;28;20661;-76
2023/12/07 01:47:32;;;;;;;6.73;5.20;;;;;;;1.55;100.00;151765.16;5029457;28;20498;-76
2023/12/07 01:49:58;;;;;;;7.40;4.70;;;;;;;1.55;100.00;151765.16;5046837;28;20459;-76
2023/12/07 01:52:28;;;;;;;6.70;4.97;;;;;;;1.53;100.00;151761.34;5028025;28;20990;-76
2023/12/07 01:54:54;;;;;;;9.40;5.60;;;;;;;1.52;100.00;151757.44;5046360;28;20454;-76
2023/12/07 01:57:23;;;;;;;6.73;5.43;;;;;;;1.50;100.00;151752.31;5047003;28;20447;-75
2023/12/07 01:59:50;;;;;;;6.90;5.20;;;;;;;1.51;100.00;151754.91;5030536;28;20449;-76
2023/12/07 02:02:19;;;;;;;8.20;5.10;;;;;;;1.51;100.00;151754.91;5032699;28;20446;-74
2023/12/07 02:04:45;;;;;;;7.73;6.20;;;;;;;1.50;100.00;151753.63;5047868;28;20552;-76
2023/12/07 02:07:13;;;;;;;8.03;5.87;;;;;;;1.48;100.00;151748.50;5035662;28;20476;-76
2023/12/07 02:09:39;;;;;;;8.33;6.77;;;;;;;1.47;100.00;151744.59;5046479;28;20825;-76
2023/12/07 02:12:06;;;;;;;8.07;6.00;;;;;;;1.45;100.00;151740.78;5030465;28;20819;-75
2023/12/07 02:14:35;;;;;;;7.67;6.13;;;;;;;1.45;100.00;151739.47;5029812;28;20463;-76
2023/12/07 02:17:09;;;;;;;10.27;6.27;;;;;;;1.40;100.00;151726.63;5047745;28;20524;-76
2023/12/07 02:19:50;;;;;;;8.70;5.33;;;;;;;1.39;100.00;151725.34;5047752;28;20445;-76
2023/12/07 02:22:19;;;;;;;7.80;5.40;;;;;;;1.36;100.00;151716.31;5043358;28;20541;-76
2023/12/07 02:24:54;;;;;;;8.17;6.23;;;;;;;1.33;100.00;151708.63;5045233;28;20497;-74
2023/12/07 02:27:34;;;;;;;7.27;5.60;;;;;;;1.30;100.00;151700.94;5037821;28;20443;-74
2023/12/07 02:30:00;;;;;;;8.67;6.10;;;;;;;1.28;100.00;151695.78;5029664;28;20458;-76
2023/12/07 02:32:27;;;;;;;9.67;6.70;;;;;;;1.24;100.00;151688.06;5025608;28;20451;-76
2023/12/07 02:34:53;;;;;;;9.27;6.63;;;;;;;1.21;100.00;151680.41;5042980;28;20448;-76
2023/12/07 02:37:21;;;;;;;7.07;6.00;;;;;;;1.20;100.00;151676.50;5025363;28;20486;-77
2023/12/07 02:39:52;;;;;;;9.50;6.40;;;;;;;1.18;100.00;151672.69;5012142;28;20461;-76
2023/12/07 02:42:18;;;;;;;10.40;6.40;;;;;;;1.15;100.00;151664.97;5045274;28;20932;-76
2023/12/07 02:44:46;;;;;;;6.90;5.83;;;;;;;1.11;100.00;151654.66;5027930;28;20556;-76
2023/12/07 02:47:13;;;;;;;8.63;5.90;;;;;;;1.09;100.00;151649.53;5022961;28;20465;-74
2023/12/07 02:49:39;;;;;;;10.40;7.00;;;;;;;1.09;100.00;151649.53;5031154;28;20454;-76
2023/12/07 02:52:06;;;;;;;8.67;6.03;;;;;;;1.07;100.00;151644.41;5044222;28;20483;-76
2023/12/07 02:54:33;;;;;;;8.90;6.70;;;;;;;1.02;100.00;151631.56;5047365;28;20458;-76
2023/12/07 02:56:59;;;;;;;11.13;7.03;;;;;;;0.99;100.00;151622.56;5043662;28;20478;-76
2023/12/07 02:59:26;;;;;;;7.63;5.90;;;;;;;0.91;100.00;151602.00;5032770;28;20443;-76
2023/12/07 03:01:54;;;;;;;8.50;6.27;;;;;;;0.85;100.00;151587.88;5044769;28;20459;-76
2023/12/07 03:04:20;;;;;;;9.17;6.57;;;;;;;0.81;100.00;151576.34;5045329;28;20485;-76
2023/12/07 03:06:47;;;;;;;9.90;6.97;;;;;;;0.75;100.00;151562.22;5030727;28;20462;-76
2023/12/07 03:09:13;;;;;;;9.53;6.70;;;;;;;0.68;100.00;151542.97;5012984;28;20438;-76
2023/12/07 03:11:40;;;;;;;9.10;6.40;;;;;;;0.64;100.00;151533.94;5021198;28;20457;-76
2023/12/07 03:14:06;;;;;;;9.73;6.50;;;;;;;0.64;100.00;151533.94;5041867;28;20460;-76
2023/12/07 03:16:33;;;;;;;10.40;6.80;;;;;;;0.61;100.00;151527.53;5012934;28;21146;-76
2023/12/07 03:19:02;;;;;;;7.43;6.17;;;;;;;0.64;100.00;151532.72;5036666;28;20528;-76
2023/12/07 03:21:29;;;;;;;12.20;7.10;;;;;;;0.63;100.00;151531.41;5044217;28;20483;-75
2023/12/07 03:23:55;;;;;;;8.37;6.40;;;;;;;0.62;100.00;151528.81;5024367;28;20478;-76
2023/12/07 03:26:22;;;;;;;10.27;7.23;;;;;;;0.62;100.00;151528.81;5029749;28;20450;-76
2023/12/07 03:28:49;;;;;;;9.67;6.80;;;;;;;0.63;100.00;151531.41;5029486;28;20443;-76
2023/12/07 03:31:15;;;;;;;11.77;8.40;;;;;;;0.63;100.00;151531.41;5043575;28;20458;-76
2023/12/07 03:33:42;;;;;;;10.37;7.20;;;;;;;0.65;100.00;151536.53;5047162;28;20908;-76
2023/12/07 03:36:11;;;;;;;11.47;7.10;;;;;;;0.64;100.00;151533.94;5048146;28;20450;-76
2023/12/07 03:38:38;;;;;;;11.23;8.13;;;;;;;0.64;100.00;151533.94;5045685;28;20456;-76
2023/12/07 03:41:05;;;;;;;11.70;7.77;;;;;;;0.64;100.00;151533.94;5038930;28;20473;-76
2023/12/07 03:43:31;;;;;;;12.10;7.43;;;;;;;0.61;100.00;151527.53;5045698;28;20868;-76
2023/12/07 03:45:58;;;;;;;10.90;7.30;;;;;;;0.61;100.00;151526.25;5031481;28;21050;-76
2023/12/07 03:48:24;;;;;;;11.50;7.60;;;;;;;0.60;100.00;151523.72;5031028;28;20482;-76
2023/12/07 03:50:51;;;;;;;11.00;7.30;;;;;;;0.58;100.00;151519.81;5048078;28;20462;-76
2023/12/07 03:53:19;;;;;;;9.90;7.10;;;;;;;0.56;100.00;151513.41;5027335;28;20806;-76
2023/12/07 03:55:45;;;;;;;12.30;7.23;;;;;;;0.54;100.00;151509.59;5031852;28;20459;-76
2023/12/07 03:58:13;;;;;;;9.70;7.87;;;;;;;0.54;100.00;151509.59;5030466;28;20586;-76
2023/12/07 04:00:39;;;;;;;11.33;7.73;;;;;;;0.51;100.00;151500.56;5022738;28;20451;-76
2023/12/07 04:03:05;;;;;;;12.47;7.10;;;;;;;0.50;100.00;151498.03;5050420;28;20926;-76
2023/12/07 04:05:32;;;;;;;12.03;6.73;;;;;;;0.51;100.00;151500.56;5016109;28;20487;-76
2023/12/07 04:07:57;;;;;;;8.40;6.77;;;;;;;0.54;100.00;151508.28;5020535;28;20206;-76
2023/12/07 04:10:25;;;;;;;15.50;7.93;;;;;;;0.53;100.00;151505.75;5009337;28;20460;-76
2023/12/07 04:12:52;;;;;;;9.03;6.87;;;;;;;0.50;100.00;151498.03;5016756;28;20199;-76
2023/12/07 04:15:19;;;;;;;10.57;6.70;;;;;;;0.49;100.00;151495.44;5025285;28;20985;-76
2023/12/07 04:17:46;;;;;;;10.27;6.80;;;;;;;0.44;100.00;151482.63;5005917;28;20460;-76
2023/12/07 04:20:13;;;;;;;10.43;7.70;;;;;;;0.42;100.00;151477.50;5004964;28;20460;-76
2023/12/07 04:22:39;;;;;;;9.70;7.63;;;;;;;0.38;100.00;151467.19;4984722;28;20489;-76
2023/12/07 04:25:06;;;;;;;10.40;7.80;;;;;;;0.37;100.00;151464.66;5009022;28;20994;-76
2023/12/07 04:27:34;;;;;;;11.30;6.93;;;;;;;0.37;100.00;151464.66;5005660;28;20963;-76
2023/12/07 04:30:03;;;;;;;10.90;7.10;;;;;;;0.33;100.00;151454.38;5021759;28;20464;-76
2023/12/07 04:32:30;;;;;;;11.57;7.67;;;;;;;0.30;100.00;151446.66;5009607;28;20449;-76
2023/12/07 04:34:56;;;;;;;11.13;7.83;;;;;;;0.29;100.00;151444.13;5009078;28;20448;-76
2023/12/07 04:37:23;;;;;;;11.03;7.27;;;;;;;0.29;100.00;151444.13;5007774;28;20929;-76
2023/12/07 04:39:49;;;;;;;11.80;7.47;;;;;;;0.26;100.00;151437.72;5008561;28;20528;-76
2023/12/07 04:42:16;;;;;;;10.50;7.63;;;;;;;0.22;100.00;151426.13;5006327;28;20452;-76
2023/12/07 04:44:44;;;;;;;12.30;8.20;;;;;;;0.17;100.00;151413.28;5003667;28;21051;-76
2023/12/07 04:47:16;;;;;;;10.93;7.27;;;;;;;0.15;100.00;151408.19;5006313;28;20492;-76
2023/12/07 04:49:45;;;;;;;10.10;7.50;;;;;;;0.19;100.00;151418.41;5047163;23;20570;-81
2023/12/07 04:52:12;;;;;;;12.20;7.80;;;;;;;0.14;100.00;151406.88;5016521;28;20460;-81
2023/12/07 04:54:39;;;;;;;12.80;9.20;;;;;;;0.12;100.00;151401.75;5021077;28;20452;-81
2023/12/07 04:57:06;;;;;;;13.43;7.27;;;;;;;0.10;100.00;151395.34;5003688;28;20996;-80
2023/12/07 04:59:33;;;;;;;12.60;7.90;;;;;;;0.12;100.00;151400.47;5008500;28;20492;-80
2023/12/07 05:02:02;;;;;;;10.53;7.43;;;;;;;0.06;100.00;151385.06;5023373;28;20459;-80
2023/12/07 05:04:28;;;;;;;9.87;7.40;;;;;;;0.04;100.00;151379.94;5015353;28;20477;-80
2023/12/07 05:06:55;;;;;;;10.80;7.70;;;;;;;0.03;100.00;151377.41;5021615;28;20514;-80
2023/12/07 05:09:21;;;;;;;9.87;7.20;;;;;;;0.02;100.00;151376.09;5009992;28;20472;-80
2023/12/07 05:11:48;;;;;;;11.70;7.97;;;;;;;0.02;100.00;151374.81;5030722;28;20455;-80
2023/12/07 05:14:14;;;;;;;11.20;8.37;;;;;;;-0.03;100.00;151364.53;5018665;28;20453;-80
2023/12/07 05:16:41;;;;;;;12.40;7.80;;;;;;;-0.04;100.00;151360.69;4999570;28;20464;-80
2023/12/07 05:19:09;;;;;;;9.23;6.97;;;;;;;-0.03;100.00;151363.28;5006727;28;20464;-80
2023/12/07 05:21:36;;;;;;;9.83;7.17;;;;;;;-0.01;100.00;151369.69;5010220;28;20784;-80
2023/12/07 05:24:03;;;;;;;10.97;7.40;;;;;;;0.01;100.00;151373.53;5009254;28;20481;-80
2023/12/07 05:26:32;;;;;;;11.80;8.40;;;;;;;0.00;100.00;151372.22;5025201;28;20445;-81
2023/12/07 05:28:59;;;;;;;10.37;7.40;;;;;;;-0.01;100.00;151369.69;5016525;28;20628;-81
2023/12/07 05:31:26;;;;;;;9.33;7.60;;;;;;;-0.02;100.00;151367.09;5004426;28;21010;-81
2023/12/07 05:33:53;;;;;;;12.57;8.03;;;;;;;0.00;100.00;151372.22;5021783;28;20425;-81
2023/12/07 05:36:26;;;;;;;11.80;7.80;;;;;;;-0.03;100.00;151364.53;5007544;28;20455;-81
2023/12/07 05:38:52;;;;;;;10.60;7.67;;;;;;;-0.09;100.00;151349.16;5023271;28;20466;-81
2023/12/07 05:41:19;;;;;;;12.50;8.30;;;;;;;-0.12;100.00;151341.44;5012152;28;20978;-81
2023/12/07 05:43:45;;;;;;;10.77;8.10;;;;;;;-0.17;100.00;151328.63;5003436;28;20929;-82
2023/12/07 05:46:12;;;;;;;12.20;8.00;;;;;;;-0.17;100.00;151327.34;5003216;28;20456;-81
2023/12/07 05:48:38;;;;;;;10.87;7.80;;;;;;;-0.20;100.00;151320.91;5020907;28;20457;-81
2023/12/07 05:51:06;;;;;;;11.57;8.20;;;;;;;-0.17;100.00;151328.63;4983419;28;20572;-81
2023/12/07 05:53:34;;;;;;;12.27;8.40;;;;;;;-0.23;100.00;151313.22;4990234;28;20520;-82
2023/12/07 05:56:00;;;;;;;12.73;8.33;;;;;;;-0.29;100.00;151297.81;4984193;28;20465;-82
2023/12/07 05:58:27;;;;;;;12.67;8.73;;;;;;;-0.32;100.00;151290.09;4986633;28;20516;-82
2023/12/07 06:00:53;;;;;;;13.87;8.27;;;;;;;-0.36;100.00;151279.88;4986622;28;20457;-82
2023/12/07 06:03:20;;;;;;;10.00;7.37;;;;;;;-0.38;100.00;151274.75;4974190;28;20454;-82
2023/12/07 06:05:47;;;;;;;10.93;7.53;;;;;;;-0.34;100.00;151284.97;4985231;28;20524;-82
2023/12/07 06:08:13;;;;;;;10.97;8.30;;;;;;;-0.35;100.00;151282.44;4969472;28;20449;-82
2023/12/07 06:10:41;;;;;;;10.00;6.80;;;;;;;-0.37;100.00;151276.03;4982431;28;20479;-82
2023/12/07 06:13:10;;;;;;;14.17;7.57;;;;;;;-0.37;100.00;151277.28;4982475;28;20565;-82
2023/12/07 06:15:37;;;;;;;12.63;7.80;;;;;;;-0.41;100.00;151267.03;4985630;28;20940;-82
2023/12/07 06:18:04;;;;;;;14.63;8.50;;;;;;;-0.43;100.00;151261.94;4984471;28;20461;-82
2023/12/07 06:20:31;;;;;;;10.63;6.93;;;;;;;-0.47;100.00;151251.63;4986174;28;20977;-82
2023/12/07 06:22:57;;;;;;;13.90;8.13;;;;;;;-0.44;100.00;151259.34;4986196;28;20914;-82
2023/12/07 06:25:24;;;;;;;16.43;7.90;;;;;;;-0.43;100.00;151261.94;4986070;28;20568;-82
2023/12/07 06:27:52;;;;;;;10.43;7.90;;;;;;;-0.46;100.00;151254.22;4984745;28;20812;-82
2023/12/07 06:30:19;;;;;;;11.60;7.57;;;;;;;-0.49;100.00;151245.22;4983929;28;20473;-82
2023/12/07 06:32:45;;;;;;;13.53;8.20;;;;;;;-0.51;100.00;151241.41;4984013;28;20541;-81
2023/12/07 06:35:13;;;;;;;10.93;8.80;;;;;;;-0.44;100.00;151259.34;4984647;28;20940;-81
2023/12/07 06:37:41;;;;;;;11.67;8.10;;;;;;;-0.42;100.00;151264.47;4983524;28;20460;-81
2023/12/07 06:40:10;;;;;;;11.27;8.20;;;;;;;-0.40;100.00;151269.63;4984462;28;20463;-81
2023/12/07 06:42:36;;;;;;;15.47;8.80;;;;;;;-0.41;100.00;151267.03;4984833;28;21243;-81
2023/12/07 06:45:05;;;;;;;14.80;8.60;;;;;;;-0.44;100.00;151259.34;4983399;28;20489;-81
2023/12/07 06:47:32;;;;;;;14.73;8.80;;;;;;;-0.48;100.00;151249.09;4986350;28;20515;-81
2023/12/07 06:49:58;;;;;;;15.03;8.60;;;;;;;-0.47;100.00;151251.63;4998823;28;21002;-81
2023/12/07 06:52:25;;;;;;;14.90;9.70;;;;;;;-0.45;100.00;151256.75;5020991;28;20444;-82
2023/12/07 06:54:51;;;;;;;16.57;9.80;;;;;;;-0.43;100.00;151261.94;5004269;28;20526;-82
2023/12/07 06:57:18;;;;;;;13.50;8.73;;;;;;;-0.42;100.00;151264.47;5019819;28;20495;-81
2023/12/07 06:59:44;;;;;;;12.20;8.37;;;;;;;-0.41;100.00;151267.03;5002435;28;20468;-81
2023/12/07 07:02:12;;;;;;;12.60;9.20;;;;;;;-0.41;100.00;151267.03;5018340;28;20814;-81
2023/12/07 07:04:39;;;;;;;13.60;9.13;;;;;;;-0.42;100.00;151263.16;4999783;28;20477;-82
2023/12/07 07:07:05;;;;;;;17.50;9.93;;;;;;;-0.45;100.00;151256.75;5004676;28;20457;-82
2023/12/07 07:09:33;;;;;;;12.20;8.40;;;;;;;-0.46;100.00;151252.94;5003547;28;20523;-81
2023/12/07 07:12:00;;;;;;;13.20;8.60;;;;;;;-0.48;100.00;151247.81;5009397;28;20890;-81
2023/12/07 07:14:26;;;;;;;10.17;7.60;;;;;;;-0.49;100.00;151245.22;5008479;28;20660;-83
2023/12/07 07:16:53;;;;;;;12.30;8.70;;;;;;;-0.48;100.00;151249.09;5005409;28;21013;-83
2023/12/07 07:19:21;;;;;;;14.53;9.07;;;;;;;-0.43;100.00;151261.94;5008290;28;20479;-83
2023/12/07 07:21:47;;;;;;;11.70;8.10;;;;;;;-0.43;100.00;151261.94;5009832;28;20452;-82
2023/12/07 07:24:14;;;;;;;15.30;9.30;;;;;;;-0.34;100.00;151283.69;5010052;28;20523;-83
2023/12/07 07:26:41;;;;;;;16.77;9.70;;;;;;;-0.35;100.00;151282.44;5007177;28;20538;-82
2023/12/07 07:29:08;;;;;;;16.70;9.80;;;;;;;-0.31;100.00;151292.69;5022979;28;20554;-81
2023/12/07 07:31:35;;;;;;;15.10;9.77;;;;;;;-0.28;100.00;151300.41;5005840;28;20515;-81
2023/12/07 07:34:01;;;;;;;14.70;9.77;;;;;;;-0.23;100.00;151311.94;5025151;28;21001;-80
2023/12/07 07:36:29;;;;;;;17.27;10.40;;;;;;;-0.23;100.00;151313.22;5007958;28;20456;-80
2023/12/07 07:38:56;;;;;;;17.20;10.30;;;;;;;-0.17;100.00;151327.34;5021105;28;20460;-80
2023/12/07 07:41:23;;;;;;;13.63;9.93;;;;;;;-0.15;100.00;151332.47;5012054;28;20870;-81
2023/12/07 07:43:50;;;;;;;13.80;9.97;;;;;;;-0.12;100.00;151341.44;5012787;28;20468;-81
2023/12/07 07:46:17;;;;;;;14.97;10.27;;;;;;;-0.11;100.00;151344.00;5023935;28;20518;-80
2023/12/07 07:48:43;;;;;;;16.40;9.70;;;;;;;-0.10;100.00;151346.56;5008324;28;20455;-80
2023/12/07 07:51:10;;;;;;;16.70;9.60;;;;;;;-0.06;100.00;151356.88;5008453;28;20487;-80
2023/12/07 07:53:38;;;;;;;12.73;9.17;;;;;;;-0.04;100.00;151361.97;5023488;28;20448;-80
2023/12/07 07:56:05;;;;;;;13.47;10.10;;;;;;;0.02;100.00;151374.81;5024834;28;20491;-81
2023/12/07 07:58:31;;;;;;;15.43;9.70;;;;;;;0.07;100.00;151387.63;5007946;28;20788;-81
2023/12/07 08:00:58;;;;;;;12.77;9.77;;;;;;;0.08;100.00;151390.22;5022895;28;20971;-80
2023/12/07 08:03:24;;;;;;;10.53;8.47;;;;;;;0.11;100.00;151397.94;5024448;28;20681;-80
2023/12/07 08:05:51;;;;;;;12.30;8.60;;;;;;;0.19;100.00;151418.41;5023633;28;20480;-80
2023/12/07 08:08:17;;;;;;;12.67;8.80;;;;;;;0.26;100.00;151437.72;5005957;28;20456;-81
2023/12/07 08:10:45;;;;;;;12.20;8.87;;;;;;;0.34;100.00;151456.97;5027373;28;20456;-81
2023/12/07 08:13:11;;;;;;;13.00;9.90;;;;;;;0.41;100.00;151476.22;5008440;28;20452;-81
2023/12/07 08:15:38;;;;;;;16.00;10.70;;;;;;;0.48;100.00;151494.16;5008448;28;20546;-80
2023/12/07 08:18:07;;;;;;;19.57;11.93;;;;;;;0.52;100.00;151503.16;5005993;28;20211;-81
2023/12/07 08:20:34;;;;;;;16.20;11.63;;;;;;;0.53;100.00;151507.00;5023131;28;20877;-82
2023/12/07 08:23:01;;;;;;;15.43;10.90;;;;;;;0.57;100.00;151516.00;5021487;28;20551;-82
2023/12/07 08:25:27;;;;;;;16.23;11.13;;;;;;;0.59;100.00;151521.13;5008531;28;20480;-82
2023/12/07 08:27:55;;;;;;;16.23;11.00;;;;;;;0.65;100.00;151535.25;5022529;28;20467;-81
2023/12/07 08:30:22;;;;;;;14.80;10.43;;;;;;;0.74;100.00;151559.66;5007929;28;20463;-81
2023/12/07 08:32:48;;;;;;;17.00;10.20;;;;;;;0.83;100.00;151581.47;5007293;28;20459;-81
2023/12/07 08:35:15;;;;;;;13.90;10.43;;;;;;;0.89;100.00;151596.88;5007958;28;20468;-80
2023/12/07 08:37:41;;;;;;;13.93;10.30;;;;;;;0.93;100.00;151607.13;5021614;28;20809;-80
2023/12/07 08:40:11;;;;;;;12.50;9.90;;;;;;;0.95;100.00;151613.59;5024825;28;20898;-81
2023/12/07 08:42:37;;;;;;;16.60;12.10;;;;;;;1.00;100.00;151626.44;5021965;28;21788;-81
2023/12/07 08:45:06;;;;;;;13.10;9.83;;;;;;;1.02;100.00;151631.56;5007269;28;20488;-80
2023/12/07 08:47:34;;;;;;;17.43;9.40;;;;;;;1.01;100.00;151628.97;5006991;28;20804;-82
2023/12/07 08:50:00;;;;;;;13.93;10.40;;;;;;;1.02;100.00;151631.56;5021717;28;20493;-81
2023/12/07 08:52:28;;;;;;;15.83;10.07;;;;;;;1.03;100.00;151634.09;5021815;28;21041;-82
2023/12/07 08:54:54;;;;;;;13.20;9.70;;;;;;;1.06;100.00;151641.81;5025664;28;20449;-81
2023/12/07 08:57:21;;;;;;;12.07;8.30;;;;;;;1.10;100.00;151652.13;5022403;28;20575;-81
2023/12/07 08:59:47;;;;;;;13.10;9.10;;;;;;;1.13;100.00;151659.84;5007214;28;20461;-80
2023/12/07 09:02:15;;;;;;;13.47;8.63;;;;;;;1.13;100.00;151658.53;5022095;28;20468;-81
2023/12/07 09:04:42;;;;;;;12.80;8.50;;;;;;;1.13;100.00;151659.84;5008840;28;20552;-81
2023/12/07 09:07:09;;;;;;;10.17;8.40;;;;;;;1.14;100.00;151661.09;5002098;28;20482;-80
2023/12/07 09:09:36;;;;;;;13.30;8.63;;;;;;;1.19;100.00;151675.22;5012837;28;20503;-80
2023/12/07 09:12:03;;;;;;;11.40;8.80;;;;;;;1.22;100.00;151682.94;5023126;28;20462;-80
2023/12/07 09:14:29;;;;;;;11.43;8.13;;;;;;;1.24;100.00;151688.06;5024861;28;20862;-80
2023/12/07 09:16:59;;;;;;;12.90;8.20;;;;;;;1.28;100.00;151695.78;5009051;28;20966;-80
2023/12/07 09:19:27;;;;;;;12.87;8.30;;;;;;;1.31;100.00;151704.78;5021893;28;20996;-80
2023/12/07 09:21:53;;;;;;;9.97;7.30;;;;;;;1.35;100.00;151713.78;5005922;28;20515;-79
2023/12/07 09:24:22;;;;;;;11.37;8.67;;;;;;;1.43;100.00;151734.34;5024262;28;20933;-79
2023/12/07 09:26:49;;;;;;;10.17;8.00;;;;;;;1.55;100.00;151765.16;5025799;28;20477;-79
2023/12/07 09:29:16;;;;;;;13.13;8.53;;;;;;;1.60;100.00;151778.00;5025662;28;21043;-79
2023/12/07 09:31:42;;;;;;;12.77;9.70;;;;;;;1.65;100.00;151790.84;5005457;28;20464;-80
2023/12/07 09:34:09;;;;;;;12.53;9.93;;;;;;;1.70;100.00;151803.69;5022955;28;20462;-80
2023/12/07 09:36:37;;;;;;;13.17;9.30;;;;;;;1.73;100.00;151811.41;5008998;28;20456;-80
2023/12/07 09:39:04;;;;;;;12.00;8.30;;;;;;;1.73;100.00;151811.41;5020818;28;20473;-80
2023/12/07 09:41:31;;;;;;;14.07;10.23;;;;;;;1.77;100.00;151821.72;5023417;28;20480;-80
2023/12/07 09:43:57;;;;;;;9.97;8.07;;;;;;;1.80;100.00;151829.44;5008314;28;20456;-80
2023/12/07 09:46:23;;;;;;;10.07;7.93;;;;;;;1.79;100.00;151826.84;5006809;28;20478;-80
2023/12/07 09:48:50;;;;;;;12.37;8.90;;;;;;;1.76;100.00;151819.13;5007815;28;20452;-80
2023/12/07 09:51:17;;;;;;;9.20;6.80;;;;;;;1.72;100.00;151810.13;5007672;28;20456;-80
2023/12/07 09:53:46;;;;;;;11.97;7.73;;;;;;;1.71;100.00;151807.59;5005922;28;20456;-80
2023/12/07 09:56:12;;;;;;;10.30;7.47;;;;;;;1.73;100.00;151811.41;5006713;28;20441;-81
2023/12/07 09:58:40;;;;;;;11.00;7.70;;;;;;;1.76;100.00;151820.44;5021961;28;20452;-81
2023/12/07 10:01:07;;;;;;;10.07;6.70;;;;;;;1.80;100.00;151829.44;5007213;28;20448;-80
2023/12/07 10:03:33;;;;;;;9.20;6.30;;;;;;;1.84;100.00;151839.72;5002940;28;20502;-79
2023/12/07 10:06:01;;;;;;;9.50;6.93;;;;;;;1.82;100.00;151835.88;5019403;28;20842;-80
2023/12/07 10:08:29;;;;;;;9.03;7.13;;;;;;;1.83;100.00;151837.13;5018685;28;20852;-80
2023/12/07 10:11:07;;;;;;;10.57;7.93;;;;;;;1.89;100.00;151852.56;5022222;28;20465;-79
2023/12/07 10:13:34;;;;;;;9.93;7.60;;;;;;;1.91;100.00;151857.69;5018518;28;20464;-79
2023/12/07 10:16:12;;;;;;;8.90;7.27;;;;;;;1.94;100.00;151865.41;5004365;28;20560;-80
2023/12/07 10:18:40;;;;;;;8.67;7.03;;;;;;;1.96;100.00;151870.53;5004487;28;20449;-79
2023/12/07 10:21:08;;;;;;;8.97;7.30;;;;;;;2.03;100.00;151887.25;5007872;28;20526;-79
2023/12/07 10:23:35;;;;;;;9.43;6.17;;;;;;;2.05;100.00;151893.69;5020043;28;20449;-79
2023/12/07 10:26:02;;;;;;;10.40;7.47;;;;;;;2.05;100.00;151893.69;5020206;28;20488;-79
2023/12/07 10:28:30;;;;;;;8.03;5.70;;;;;;;2.12;100.00;151911.69;5005402;28;20452;-79
2023/12/07 10:30:58;;;;;;;7.67;5.60;;;;;;;2.16;100.00;151920.69;5018936;28;20480;-79
2023/12/07 10:33:24;;;;;;;8.40;5.90;;;;;;;2.21;100.00;151934.84;5021033;28;20445;-79
2023/12/07 10:35:51;;;;;;;9.60;6.10;;;;;;;2.24;100.00;151942.56;5004906;28;20452;-80
2023/12/07 10:38:18;;;;;;;7.70;6.10;;;;;;;2.21;100.00;151934.84;5019754;28;20456;-79
2023/12/07 10:40:46;;;;;;;6.17;5.07;;;;;;;2.15;100.00;151919.41;5005149;28;20816;-79
2023/12/07 10:43:13;;;;;;;6.57;5.27;;;;;;;2.13;100.00;151912.97;5020679;28;20464;-81
2023/12/07 10:45:43;;;;;;;6.93;4.70;;;;;;;2.11;100.00;151907.84;5003878;28;20487;-80
2023/12/07 10:48:10;;;;;;;7.57;6.00;;;;;;;2.13;100.00;151914.25;5003889;28;20542;-79
2023/12/07 10:50:41;;;;;;;6.30;5.20;;;;;;;2.20;100.00;151932.25;5006927;28;20843;-79
2023/12/07 10:53:10;;;;;;;6.30;4.83;;;;;;;2.24;100.00;151942.56;5004193;28;20914;-80
2023/12/07 10:55:43;;;;;;;6.30;4.97;;;;;;;2.24;100.00;151942.56;5021368;28;20570;-79
2023/12/07 10:58:10;;;;;;;6.90;4.67;;;;;;;2.24;100.00;151942.56;5020666;28;20455;-80
2023/12/07 11:00:37;;;;;;;6.00;4.47;;;;;;;2.24;100.00;151942.56;5021929;28;20463;-80
2023/12/07 11:03:05;;;;;;;6.07;5.07;;;;;;;2.19;100.00;151929.72;5017256;28;20605;-79
2023/12/07 11:05:33;;;;;;;6.30;5.07;;;;;;;2.20;100.00;151932.25;5016379;28;20926;-80
2023/12/07 11:08:06;;;;;;;6.43;4.80;;;;;;;2.30;100.00;151957.94;5020786;28;20453;-80
2023/12/07 11:10:37;;;;;;;6.93;5.57;;;;;;;2.38;100.00;151977.28;5021713;28;20567;-80
2023/12/07 11:13:09;;;;;;;7.30;5.07;;;;;;;2.36;100.00;151973.41;5023494;28;20456;-80
2023/12/07 11:15:36;;;;;;;5.10;4.60;;;;;;;2.58;95.64;152027.41;5005599;28;20452;-80
2023/12/07 11:18:06;;;;;;;5.60;4.40;;;;;;;2.62;93.61;152037.72;5014629;28;20470;-80